WetterOnline ( https://www.wetteronline.de )

Wetter aktuell Elsfleth

Aktuelles Wetter: Bremerhaven (11m)

6-stündlich | Neueste Meldungen
Ortszeit Temperatur Wetter
Sa, 28.03. 19:00 6.3° C leicht bewölkt
Sa, 28.03. 13:00 8.3° C wolkig
Sa, 28.03. 7:00 4.1° C wolkenlos
Sa, 28.03. 1:00 5.5° C wolkenlos
Fr, 27.03. 19:00 11.3° C wolkenlos
Fr, 27.03. 13:00 12.5° C wolkenlos
Fr, 27.03. 7:00 2.5° C wolkenlos
Fr, 27.03. 1:00 3.7° C wolkenlos
Ortszeit Temperatur Wetter
Sa, 28.03. 22:30 6.1° C bewölkt
Sa, 28.03. 22:20 6.1° C bewölkt
Sa, 28.03. 22:10 6.0° C bewölkt
Sa, 28.03. 22:00 5.9° C bewölkt
Sa, 28.03. 21:50 5.9° C bewölkt
Sa, 28.03. 21:40 5.9° C bewölkt
Sa, 28.03. 21:30 5.9° C leicht bewölkt
Sa, 28.03. 21:00 5.9° C bewölkt
Ortszeit Relative Feuchte Sichtweite
Sa, 28.03. 19:00 69% 23 km
Sa, 28.03. 13:00 71% 25 km
Sa, 28.03. 7:00 81% 11 km
Sa, 28.03. 1:00 61% 21 km
Fr, 27.03. 19:00 53% 20 km
Fr, 27.03. 13:00 35% 29 km
Fr, 27.03. 7:00 72% 19 km
Fr, 27.03. 1:00 62% 25 km
Ortszeit Relative Feuchte Sichtweite
Sa, 28.03. 22:30 73% 22 km
Sa, 28.03. 22:20 73% -
Sa, 28.03. 22:10 76% -
Sa, 28.03. 22:00 78% 17 km
Sa, 28.03. 21:50 78% -
Sa, 28.03. 21:40 79% -
Sa, 28.03. 21:30 78% 18 km
Sa, 28.03. 21:00 77% 18 km
Ortszeit Niederschlagsmenge Niederschlagsart
Sa, 28.03. 19:00 0.0 l/m2 in 12 Std. -
Sa, 28.03. 13:00 0.0 l/m2 in 6 Std. -
Sa, 28.03. 7:00 0.0 l/m2 in 12 Std. -
Sa, 28.03. 1:00 0.0 l/m2 in 6 Std. -
Fr, 27.03. 19:00 0.0 l/m2 in 12 Std. -
Fr, 27.03. 13:00 0.0 l/m2 in 6 Std. -
Fr, 27.03. 7:00 0.0 l/m2 in 12 Std. -
Fr, 27.03. 1:00 0.0 l/m2 in 6 Std. -
Ortszeit Niederschlagsmenge Niederschlagsart
Sa, 28.03. 22:30 0.0 l/m2 in 1 Std. -
Sa, 28.03. 22:20 keine Meldung -
Sa, 28.03. 22:10 keine Meldung -
Sa, 28.03. 22:00 0.0 l/m2 in 1 Std. -
Sa, 28.03. 21:50 keine Meldung -
Sa, 28.03. 21:40 keine Meldung -
Sa, 28.03. 21:30 0.0 l/m2 in 1 Std. -
Sa, 28.03. 21:00 0.0 l/m2 in 1 Std. -
Ortszeit Stärke Spitze Richtung
km/h Bft. km/h Grad Sektor
Sa, 28.03. 19:00 36 5 61 340° N
Sa, 28.03. 13:00 22 4 32 330° NW
Sa, 28.03. 7:00 13 3 24 30° NO
Sa, 28.03. 1:00 14 3 40 40° NO
Fr, 27.03. 19:00 18 3 36 50° NO
Fr, 27.03. 13:00 18 3 40 80° O
Fr, 27.03. 7:00 18 3 29 60° NO
Fr, 27.03. 1:00 18 3 29 50° NO
Ortszeit Stärke Spitze Richtung
km/h Bft. km/h Grad Sektor
Sa, 28.03. 22:30 22 4 36 350° N
Sa, 28.03. 22:20 22 4 - 350° N
Sa, 28.03. 22:10 22 4 - 340° N
Sa, 28.03. 22:00 24 4 44 340° N
Sa, 28.03. 21:50 24 4 - 340° N
Sa, 28.03. 21:40 30 5 - 340° N
Sa, 28.03. 21:30 31 5 44 340° N
Sa, 28.03. 21:00 33 5 52 340° N
Ortszeit Untergrenze Bedeckung Gattung
total tief tief mittel hoch
Sa, 28.03. 19:00 630 m 3/8 3/8 - - -
Sa, 28.03. 13:00 510 m 6/8 6/8 - - -
Sa, 28.03. 7:00 - 0/8 0/8 - - -
Sa, 28.03. 1:00 - 0/8 0/8 - - -
Fr, 27.03. 19:00 - 0/8 0/8 - - -
Fr, 27.03. 13:00 - 0/8 0/8 - - -
Fr, 27.03. 7:00 - 0/8 0/8 - - -
Fr, 27.03. 1:00 - 0/8 0/8 - - -
Ortszeit Bedeckungsgrad in Achtel und Wolkenuntergrenze
Sa, 28.03. 22:30 2(1380m) 7(1500m)
Sa, 28.03. 22:20 2(1380m) 7(1500m)
Sa, 28.03. 22:10 6(1500m) 7(1500m)
Sa, 28.03. 22:00 7(1440m) 7(5400m)
Sa, 28.03. 21:50 7(1440m) 7(5400m)
Sa, 28.03. 21:40 5(1350m) 7(1500m) 7(5400m)
Sa, 28.03. 21:30 3(1320m) 3(5400m)
Sa, 28.03. 21:00 7(570m) 7(4200m) 7(5100m)
Ortszeit Luftdruck NN (hPa) Tendenz (hPa in 3 Std.)
Sa, 28.03. 19:00 1023 - 0,1
Sa, 28.03. 13:00 1025 - 0,4
Sa, 28.03. 7:00 1025 - 0,1
Sa, 28.03. 1:00 1025 + 0,2
Fr, 27.03. 19:00 1023 0,0
Fr, 27.03. 13:00 1025 - 1,0
Fr, 27.03. 7:00 1026 - 0,2
Fr, 27.03. 1:00 1026 - 0,4
Ortszeit Luftdruck NN (hPa) Tendenz (hPa in 3 Std.)
Sa, 28.03. 22:30 1023 0,0
Sa, 28.03. 22:20 1023 keine Meldung
Sa, 28.03. 22:10 1023 keine Meldung
Sa, 28.03. 22:00 1023 + 0,1
Sa, 28.03. 21:50 1023 keine Meldung
Sa, 28.03. 21:40 1023 keine Meldung
Sa, 28.03. 21:30 1023 + 0,2
Sa, 28.03. 21:00 1023 + 0,4
Ortszeit Schneehöhe (cm)
Sa, 28.03. 19:00 0
Sa, 28.03. 13:00 0
Sa, 28.03. 7:00 0
Sa, 28.03. 1:00 0
Fr, 27.03. 19:00 0
Fr, 27.03. 13:00 0
Fr, 27.03. 7:00 0
Fr, 27.03. 1:00 0
Ortszeit Schneehöhe (cm)
Sa, 28.03. 22:30 0
Sa, 28.03. 22:20 0
Sa, 28.03. 22:10 0
Sa, 28.03. 22:00 0
Sa, 28.03. 21:50 0
Sa, 28.03. 21:40 0
Sa, 28.03. 21:30 0
Sa, 28.03. 21:00 0
Link zu dieser Seite / Seite empfehlen

Das Wetter in ...